Terminal Aerodrome Forecast
Issued by NWS Burlington, VT

Home | Current Version | Previous Version | Text Only | Print | Product List | Glossary On
Versions: 1 2 3 4 5 6 7 8 9 10 11 12 13 14 15 16 17 18 19 20 21 22 23
000
FTUS41 KBTV 311100
TAFBTV
TAF
KBTV 311122Z 3112/0112 VRB03KT P6SM SCT040 SCT100
     FM311400 18007KT P6SM SCT040 BKN100
     FM311600 18010KT 6SM -SHRA VCTS BKN035CB BKN060
     FM312000 19008KT P6SM VCSH BKN050
     FM010000 18006KT P6SM SCT050=

USA.gov is the U.S. government's official web portal to all federal, state and local government web resources and services.